Time,TemperatureF,DewpointF,PressureIn,WindDirection,WindDirectionDegrees,WindSpeedMPH,WindSpeedGustMPH,Humidity,HourlyPrecipIn,Conditions,Clouds,dailyrainin,SoftwareType,DateUTC
2013-05-23 00:02:00,46.0,38.0,-100.00,SE,140,12.0,16.0,75,0.00,,,-99.99,,2013-05-23 06:02:00,
2013-05-23 00:12:00,46.0,38.0,-100.00,SE,143,16.0,21.0,75,0.00,,,-99.99,,2013-05-23 06:12:00,
2013-05-23 00:21:00,46.0,39.0,-100.00,SE,144,18.0,24.0,75,0.00,,,-99.99,,2013-05-23 06:21:00,
2013-05-23 00:32:00,46.0,39.0,-100.00,SE,141,21.0,25.0,77,0.00,,,-99.99,,2013-05-23 06:32:00,
2013-05-23 00:41:00,45.0,39.0,-100.00,SE,141,21.0,27.0,79,0.00,,,-99.99,,2013-05-23 06:41:00,
2013-05-23 00:52:00,45.0,39.0,-100.00,SE,141,21.0,26.0,80,0.00,,,-99.99,,2013-05-23 06:52:00,
2013-05-23 01:02:00,44.0,39.0,-100.00,SE,138,19.0,24.0,81,0.00,,,-99.99,,2013-05-23 07:02:00,
2013-05-23 01:11:00,44.0,39.0,-100.00,SE,140,18.0,24.0,83,0.00,,,-99.99,,2013-05-23 07:11:00,
2013-05-23 01:21:00,44.0,39.0,-100.00,SE,137,19.0,24.0,85,0.00,,,-99.99,,2013-05-23 07:21:00,
2013-05-23 01:32:00,43.0,40.0,-100.00,SE,143,20.0,26.0,86,0.00,,,-99.99,,2013-05-23 07:32:00,
2013-05-23 01:42:00,43.0,40.0,-100.00,SE,144,17.0,22.0,87,0.00,,,-99.99,,2013-05-23 07:42:00,
2013-05-23 01:59:00,43.0,40.0,-100.00,SSE,151,16.0,22.0,88,0.00,,,-99.99,,2013-05-23 07:59:00,
2013-05-23 02:11:00,43.0,40.0,-100.00,SSE,160,12.0,17.0,91,0.00,,,-99.99,,2013-05-23 08:11:00,
2013-05-23 02:21:00,43.0,40.0,-100.00,SSE,157,15.0,20.0,91,0.00,,,-99.99,,2013-05-23 08:21:00,
2013-05-23 02:31:00,43.0,41.0,-100.00,SSE,161,16.0,21.0,91,0.00,,,-99.99,,2013-05-23 08:31:00,
2013-05-23 02:41:00,43.0,40.0,-100.00,SSE,162,16.0,21.0,92,0.00,,,-99.99,,2013-05-23 08:41:00,
2013-05-23 02:51:00,43.0,41.0,-100.00,SSE,165,16.0,21.0,92,0.00,,,-99.99,,2013-05-23 08:51:00,
2013-05-23 03:01:00,43.0,41.0,-100.00,SSE,161,19.0,28.0,93,0.00,,,-99.99,,2013-05-23 09:01:00,
2013-05-23 03:11:00,43.0,41.0,-100.00,SSE,157,20.0,27.0,94,0.00,,,-99.99,,2013-05-23 09:11:00,
2013-05-23 03:21:00,43.0,41.0,-100.00,SSE,151,22.0,30.0,94,0.00,,,-99.99,,2013-05-23 09:21:00,
2013-05-23 03:33:00,43.0,41.0,-100.00,SSE,150,23.0,30.0,96,0.00,,,-99.99,,2013-05-23 09:33:00,
2013-05-23 03:42:00,42.0,41.0,-100.00,SSE,151,22.0,27.0,95,0.00,,,-99.99,,2013-05-23 09:42:00,
2013-05-23 03:53:00,43.0,41.0,-100.00,SSE,155,17.0,24.0,94,0.00,,,-99.99,,2013-05-23 09:53:00,
2013-05-23 04:02:00,43.0,41.0,-100.00,SSE,155,15.0,21.0,93,0.00,,,-99.99,,2013-05-23 10:02:00,
2013-05-23 04:12:00,42.0,41.0,-100.00,SSE,160,16.0,22.0,93,0.00,,,-99.99,,2013-05-23 10:12:00,
2013-05-23 04:22:00,42.0,40.0,-100.00,SSE,160,16.0,21.0,94,0.00,,,-99.99,,2013-05-23 10:22:00,
2013-05-23 04:32:00,42.0,41.0,-100.00,SSE,158,17.0,22.0,95,0.00,,,-99.99,,2013-05-23 10:32:00,
2013-05-23 04:42:00,42.0,40.0,-100.00,SSE,162,17.0,22.0,96,0.00,,,-99.99,,2013-05-23 10:42:00,
2013-05-23 04:52:00,41.0,40.0,-100.00,SSE,164,17.0,22.0,96,0.00,,,-99.99,,2013-05-23 10:52:00,
2013-05-23 05:02:00,42.0,40.0,-100.00,SSE,164,17.0,24.0,96,0.00,,,-99.99,,2013-05-23 11:02:00,
2013-05-23 05:11:00,41.0,40.0,-100.00,SSE,162,17.0,23.0,96,0.00,,,-99.99,,2013-05-23 11:11:00,
2013-05-23 05:22:00,41.0,40.0,-100.00,SSE,162,17.0,21.0,96,0.00,,,-99.99,,2013-05-23 11:22:00,
2013-05-23 05:32:00,41.0,40.0,-100.00,SSE,162,14.0,20.0,96,0.00,,,-99.99,,2013-05-23 11:32:00,
2013-05-23 05:41:00,41.0,40.0,-100.00,SSE,151,15.0,21.0,97,0.00,,,-99.99,,2013-05-23 11:41:00,
2013-05-23 05:52:00,41.0,40.0,-100.00,SSE,148,14.0,18.0,97,0.00,,,-99.99,,2013-05-23 11:52:00,
2013-05-23 06:01:00,41.0,40.0,-100.00,SE,145,13.0,17.0,97,0.00,,,-99.99,,2013-05-23 12:01:00,
2013-05-23 06:11:00,41.0,40.0,-100.00,SE,138,11.0,16.0,96,0.00,,,-99.99,,2013-05-23 12:11:00,
2013-05-23 06:21:00,41.0,40.0,-100.00,SE,138,12.0,14.0,97,0.00,,,-99.99,,2013-05-23 12:21:00,
2013-05-23 06:32:00,42.0,41.0,-100.00,SE,145,12.0,18.0,96,0.00,,,-99.99,,2013-05-23 12:32:00,
2013-05-23 06:42:00,42.0,40.0,-100.00,SSE,151,13.0,18.0,96,0.00,,,-99.99,,2013-05-23 12:42:00,
2013-05-23 06:52:00,42.0,40.0,-100.00,SSE,155,15.0,21.0,94,0.00,,,-99.99,,2013-05-23 12:52:00,
2013-05-23 07:01:00,43.0,41.0,-100.00,SSE,152,12.0,17.0,92,0.00,,,-99.99,,2013-05-23 13:01:00,
2013-05-23 07:11:00,43.0,41.0,-100.00,SE,145,12.0,16.0,90,0.00,,,-99.99,,2013-05-23 13:11:00,
2013-05-23 07:22:00,44.0,41.0,-100.00,SE,140,12.0,16.0,89,0.00,,,-99.99,,2013-05-23 13:22:00,
2013-05-23 07:31:00,44.0,41.0,-100.00,SE,136,13.0,17.0,88,0.00,,,-99.99,,2013-05-23 13:31:00,
2013-05-23 07:41:00,44.0,41.0,-100.00,SE,133,14.0,17.0,87,0.00,,,-99.99,,2013-05-23 13:41:00,
2013-05-23 07:52:00,45.0,41.0,-100.00,SE,128,14.0,20.0,86,0.00,,,-99.99,,2013-05-23 13:52:00,
2013-05-23 08:01:00,45.0,41.0,-100.00,SE,128,13.0,17.0,84,0.00,,,-99.99,,2013-05-23 14:01:00,
2013-05-23 08:11:00,46.0,41.0,-100.00,SE,127,12.0,17.0,83,0.00,,,-99.99,,2013-05-23 14:11:00,
2013-05-23 08:21:00,46.0,41.0,-100.00,SE,131,12.0,17.0,80,0.00,,,-99.99,,2013-05-23 14:21:00,
2013-05-23 08:32:00,48.0,41.0,-100.00,SE,144,11.0,15.0,77,0.00,,,-99.99,,2013-05-23 14:32:00,
2013-05-23 08:42:00,50.0,40.0,-100.00,SSE,152,14.0,24.0,69,0.00,,,-99.99,,2013-05-23 14:42:00,
2013-05-23 08:52:00,50.0,40.0,-100.00,SSE,155,18.0,22.0,69,0.00,,,-99.99,,2013-05-23 14:52:00,
2013-05-23 09:01:00,52.0,41.0,-100.00,SSE,155,17.0,23.0,67,0.00,,,-99.99,,2013-05-23 15:01:00,
2013-05-23 09:11:00,52.0,40.0,-100.00,SSE,155,19.0,24.0,65,0.00,,,-99.99,,2013-05-23 15:11:00,
2013-05-23 09:21:00,53.0,40.0,-100.00,SSE,157,17.0,24.0,61,0.00,,,-99.99,,2013-05-23 15:21:00,
2013-05-23 09:32:00,53.0,40.0,-100.00,SSE,150,16.0,21.0,61,0.00,,,-99.99,,2013-05-23 15:32:00,
2013-05-23 09:42:00,54.0,40.0,-100.00,SSE,155,15.0,20.0,60,0.00,,,-99.99,,2013-05-23 15:42:00,
2013-05-23 09:53:00,55.0,40.0,-100.00,SSE,147,14.0,21.0,56,0.00,,,-99.99,,2013-05-23 15:53:00,
2013-05-23 10:03:00,55.0,39.0,-100.00,ESE,113,16.0,22.0,55,0.00,,,-99.99,,2013-05-23 16:03:00,
2013-05-23 10:12:00,55.0,41.0,-100.00,ESE,113,16.0,21.0,59,0.00,,,-99.99,,2013-05-23 16:12:00,
2013-05-23 10:23:00,56.0,42.0,-100.00,ESE,113,16.0,21.0,59,0.00,,,-99.99,,2013-05-23 16:23:00,
2013-05-23 10:33:00,56.0,42.0,-100.00,ESE,113,17.0,24.0,59,0.00,,,-99.99,,2013-05-23 16:33:00,
2013-05-23 10:42:00,56.0,43.0,-100.00,ESE,113,21.0,28.0,61,0.00,,,-99.99,,2013-05-23 16:42:00,
2013-05-23 10:52:00,56.0,43.0,-100.00,ESE,113,23.0,28.0,61,0.00,,,-99.99,,2013-05-23 16:52:00,
2013-05-23 11:03:00,57.0,43.0,-100.00,ESE,113,23.0,29.0,59,0.00,,,-99.99,,2013-05-23 17:03:00,
2013-05-23 11:11:00,58.0,43.0,-100.00,ESE,113,21.0,27.0,59,0.00,,,-99.99,,2013-05-23 17:11:00,
2013-05-23 11:22:00,57.0,43.0,-100.00,ESE,113,21.0,27.0,59,0.00,,,-99.99,,2013-05-23 17:22:00,
2013-05-23 11:33:00,57.0,43.0,-100.00,ESE,113,26.0,33.0,59,0.00,,,-99.99,,2013-05-23 17:33:00,
2013-05-23 11:43:00,57.0,43.0,-100.00,ESE,113,24.0,30.0,59,0.00,,,-99.99,,2013-05-23 17:43:00,
2013-05-23 11:52:00,57.0,42.0,-100.00,ESE,113,24.0,29.0,57,0.00,,,-99.99,,2013-05-23 17:52:00,
2013-05-23 12:01:00,57.0,42.0,-100.00,ESE,113,24.0,30.0,56,0.00,,,-99.99,,2013-05-23 18:01:00,
2013-05-23 12:11:00,58.0,43.0,-100.00,ESE,113,24.0,29.0,58,0.00,,,-99.99,,2013-05-23 18:11:00,
2013-05-23 12:21:00,57.0,43.0,-100.00,ESE,113,27.0,32.0,59,0.00,,,-99.99,,2013-05-23 18:21:00,
2013-05-23 12:32:00,57.0,43.0,-100.00,ESE,113,26.0,33.0,58,0.00,,,-99.99,,2013-05-23 18:32:00,
2013-05-23 12:42:00,57.0,44.0,-100.00,ESE,113,27.0,35.0,61,0.00,,,-99.99,,2013-05-23 18:42:00,
2013-05-23 12:52:00,58.0,42.0,-100.00,ESE,113,29.0,35.0,56,0.00,,,-99.99,,2013-05-23 18:52:00,
2013-05-23 13:01:00,58.0,42.0,-100.00,ESE,113,29.0,37.0,56,0.00,,,-99.99,,2013-05-23 19:01:00,
2013-05-23 13:11:00,57.0,43.0,-100.00,ESE,113,29.0,37.0,59,0.00,,,-99.99,,2013-05-23 19:11:00,
2013-05-23 13:21:00,58.0,43.0,-100.00,ESE,113,30.0,36.0,58,0.00,,,-99.99,,2013-05-23 19:21:00,
2013-05-23 13:32:00,59.0,44.0,-100.00,ESE,113,29.0,36.0,57,0.00,,,-99.99,,2013-05-23 19:32:00,
2013-05-23 13:41:00,58.0,43.0,-100.00,ESE,113,30.0,37.0,58,0.00,,,-99.99,,2013-05-23 19:41:00,
2013-05-23 13:52:00,59.0,42.0,-100.00,ESE,113,28.0,35.0,54,0.00,,,-99.99,,2013-05-23 19:52:00,
2013-05-23 14:02:00,60.0,42.0,-100.00,ESE,113,29.0,35.0,53,0.00,,,-99.99,,2013-05-23 20:02:00,
2013-05-23 14:11:00,59.0,43.0,-100.00,ESE,113,30.0,37.0,55,0.00,,,-99.99,,2013-05-23 20:11:00,
2013-05-23 14:21:00,60.0,43.0,-100.00,ESE,113,29.0,38.0,52,0.00,,,-99.99,,2013-05-23 20:21:00,
2013-05-23 14:32:00,61.0,42.0,-100.00,ESE,113,31.0,39.0,50,0.00,,,-99.99,,2013-05-23 20:32:00,
2013-05-23 14:41:00,60.0,43.0,-100.00,ESE,113,32.0,41.0,53,0.00,,,-99.99,,2013-05-23 20:41:00,
2013-05-23 14:51:00,61.0,43.0,-100.00,ESE,113,32.0,42.0,52,0.00,,,-99.99,,2013-05-23 20:51:00,
2013-05-23 15:01:00,59.0,43.0,-100.00,ESE,113,35.0,43.0,54,0.00,,,-99.99,,2013-05-23 21:01:00,
2013-05-23 15:11:00,60.0,43.0,-100.00,ESE,113,35.0,43.0,53,0.00,,,-99.99,,2013-05-23 21:11:00,
2013-05-23 15:21:00,59.0,43.0,-100.00,ESE,113,33.0,41.0,55,0.00,,,-99.99,,2013-05-23 21:21:00,
2013-05-23 15:32:00,59.0,44.0,-100.00,ESE,113,34.0,43.0,58,0.00,,,-99.99,,2013-05-23 21:32:00,
2013-05-23 15:43:00,58.0,44.0,-100.00,ESE,113,34.0,43.0,59,0.00,,,-99.99,,2013-05-23 21:43:00,
2013-05-23 15:53:00,60.0,44.0,-100.00,ESE,113,32.0,42.0,57,0.00,,,-99.99,,2013-05-23 21:53:00,
2013-05-23 16:02:00,59.0,45.0,-100.00,ESE,113,35.0,44.0,59,0.00,,,-99.99,,2013-05-23 22:02:00,
2013-05-23 16:12:00,58.0,45.0,-100.00,ESE,113,34.0,42.0,60,0.00,,,-99.99,,2013-05-23 22:12:00,
2013-05-23 16:22:00,58.0,44.0,-100.00,ESE,113,34.0,42.0,59,0.00,,,-99.99,,2013-05-23 22:22:00,
2013-05-23 16:33:00,59.0,44.0,-100.00,ESE,113,34.0,42.0,58,0.00,,,-99.99,,2013-05-23 22:33:00,
2013-05-23 16:42:00,59.0,45.0,-100.00,ESE,113,34.0,42.0,59,0.00,,,-99.99,,2013-05-23 22:42:00,
2013-05-23 16:52:00,59.0,45.0,-100.00,ESE,113,29.0,37.0,61,0.00,,,-99.99,,2013-05-23 22:52:00,
2013-05-23 17:01:00,58.0,45.0,-100.00,ESE,113,31.0,39.0,62,0.00,,,-99.99,,2013-05-23 23:01:00,
2013-05-23 17:11:00,59.0,45.0,-100.00,ESE,113,31.0,39.0,61,0.00,,,-99.99,,2013-05-23 23:11:00,
2013-05-23 17:21:00,59.0,45.0,-100.00,ESE,113,32.0,39.0,61,0.00,,,-99.99,,2013-05-23 23:21:00,
2013-05-23 17:32:00,58.0,46.0,-100.00,ESE,113,30.0,37.0,63,0.00,,,-99.99,,2013-05-23 23:32:00,
2013-05-23 17:42:00,59.0,45.0,-100.00,ESE,113,29.0,37.0,61,0.00,,,-99.99,,2013-05-23 23:42:00,
2013-05-23 17:52:00,59.0,45.0,-100.00,ESE,113,31.0,39.0,61,0.00,,,-99.99,,2013-05-23 23:52:00,
2013-05-23 18:01:00,59.0,45.0,-100.00,ESE,113,27.0,35.0,61,0.00,,,-99.99,,2013-05-24 00:01:00,
2013-05-23 18:12:00,58.0,45.0,-100.00,ESE,113,30.0,40.0,60,0.00,,,-99.99,,2013-05-24 00:12:00,
2013-05-23 18:21:00,58.0,44.0,-100.00,ESE,113,34.0,44.0,60,0.00,,,-99.99,,2013-05-24 00:21:00,
2013-05-23 18:32:00,57.0,44.0,-100.00,ESE,113,32.0,41.0,62,0.00,,,-99.99,,2013-05-24 00:32:00,
2013-05-23 18:42:00,57.0,45.0,-100.00,ESE,113,28.0,38.0,64,0.00,,,-99.99,,2013-05-24 00:42:00,
2013-05-23 18:52:00,56.0,46.0,-100.00,ESE,113,29.0,38.0,69,0.00,,,-99.99,,2013-05-24 00:52:00,
2013-05-23 19:01:00,55.0,46.0,-100.00,ESE,113,30.0,39.0,70,0.00,,,-99.99,,2013-05-24 01:01:00,
2013-05-23 19:12:00,55.0,46.0,-100.00,SE,143,30.0,38.0,71,0.00,,,-99.99,,2013-05-24 01:12:00,
2013-05-23 19:22:00,54.0,45.0,-100.00,SSE,152,29.0,39.0,71,0.00,,,-99.99,,2013-05-24 01:22:00,
2013-05-23 19:32:00,54.0,45.0,-100.00,SSE,152,27.0,39.0,72,0.00,,,-99.99,,2013-05-24 01:32:00,
2013-05-23 19:41:00,53.0,46.0,-100.00,SSE,152,28.0,35.0,75,0.00,,,-99.99,,2013-05-24 01:41:00,
2013-05-23 19:52:00,53.0,46.0,-100.00,SSE,154,28.0,35.0,77,0.00,,,-99.99,,2013-05-24 01:52:00,
2013-05-23 20:01:00,52.0,46.0,-100.00,SSE,152,30.0,38.0,80,0.00,,,-99.99,,2013-05-24 02:01:00,
2013-05-23 20:11:00,51.0,46.0,-100.00,SSE,152,28.0,36.0,81,0.00,,,-99.99,,2013-05-24 02:11:00,
2013-05-23 20:21:00,51.0,46.0,-100.00,SSE,157,29.0,37.0,83,0.00,,,-99.99,,2013-05-24 02:21:00,
2013-05-23 20:32:00,50.0,46.0,-100.00,SSE,157,29.0,37.0,84,0.00,,,-99.99,,2013-05-24 02:32:00,
2013-05-23 20:42:00,50.0,46.0,-100.00,SSE,158,27.0,35.0,85,0.00,,,-99.99,,2013-05-24 02:42:00,
2013-05-23 20:52:00,50.0,46.0,-100.00,SSE,160,26.0,31.0,85,0.00,,,-99.99,,2013-05-24 02:52:00,
2013-05-23 21:02:00,49.0,45.0,-100.00,SSE,158,24.0,32.0,85,0.00,,,-99.99,,2013-05-24 03:02:00,
2013-05-23 21:11:00,49.0,45.0,-100.00,SSE,158,22.0,30.0,85,0.00,,,-99.99,,2013-05-24 03:11:00,
2013-05-23 21:21:00,49.0,45.0,-100.00,SSE,158,18.0,24.0,85,0.00,,,-99.99,,2013-05-24 03:21:00,
2013-05-23 21:33:00,49.0,45.0,-100.00,SSE,161,19.0,26.0,85,0.00,,,-99.99,,2013-05-24 03:33:00,
2013-05-23 21:42:00,49.0,45.0,-100.00,SSE,162,19.0,29.0,85,0.00,,,-99.99,,2013-05-24 03:42:00,
2013-05-23 21:53:00,49.0,44.0,-100.00,SSE,161,17.0,24.0,85,0.00,,,-99.99,,2013-05-24 03:53:00,
2013-05-23 22:03:00,49.0,44.0,-100.00,SSE,164,15.0,21.0,84,0.00,,,-99.99,,2013-05-24 04:03:00,
2013-05-23 22:12:00,49.0,44.0,-100.00,SSE,164,14.0,22.0,83,0.00,,,-99.99,,2013-05-24 04:12:00,
2013-05-23 22:22:00,48.0,44.0,-100.00,SSE,161,12.0,17.0,84,0.00,,,-99.99,,2013-05-24 04:22:00,
2013-05-23 22:33:00,48.0,43.0,-100.00,SSE,161,12.0,19.0,83,0.00,,,-99.99,,2013-05-24 04:33:00,
2013-05-23 22:42:00,48.0,43.0,-100.00,SSE,161,11.0,15.0,84,0.00,,,-99.99,,2013-05-24 04:42:00,
2013-05-23 22:52:00,48.0,43.0,-100.00,SSE,167,11.0,14.0,83,0.00,,,-99.99,,2013-05-24 04:52:00,
2013-05-23 23:02:00,47.0,43.0,-100.00,SSE,167,10.0,13.0,83,0.00,,,-99.99,,2013-05-24 05:02:00,
2013-05-23 23:12:00,47.0,43.0,-100.00,SSE,168,11.0,16.0,83,0.00,,,-99.99,,2013-05-24 05:12:00,
2013-05-23 23:22:00,47.0,42.0,-100.00,South,169,11.0,14.0,83,0.00,,,-99.99,,2013-05-24 05:22:00,
2013-05-23 23:32:00,47.0,42.0,-100.00,SSE,162,9.0,13.0,83,0.00,,,-99.99,,2013-05-24 05:32:00,
2013-05-23 23:42:00,47.0,42.0,-100.00,SSE,165,9.0,12.0,84,0.00,,,-99.99,,2013-05-24 05:42:00,
2013-05-23 23:52:00,46.0,42.0,-100.00,South,179,6.0,11.0,85,0.00,,,-99.99,,2013-05-24 05:52:00,